sensor_id;sensor_type;location;lat;lon;timestamp;P1;durP1;ratioP1;P2;durP2;ratioP2
81996;SDS011;71500;50.806;8.774;2024-01-30T00:00:15;11.20;;;8.40;;
81996;SDS011;71500;50.806;8.774;2024-01-30T00:03:07;10.20;;;8.20;;
81996;SDS011;71500;50.806;8.774;2024-01-30T00:05:39;12.30;;;8.90;;
81996;SDS011;71500;50.806;8.774;2024-01-30T00:08:11;12.70;;;9.30;;
81996;SDS011;71500;50.806;8.774;2024-01-30T00:10:43;10.90;;;8.30;;
81996;SDS011;71500;50.806;8.774;2024-01-30T00:13:14;11.80;;;9.00;;
81996;SDS011;71500;50.806;8.774;2024-01-30T00:15:48;11.80;;;8.10;;
81996;SDS011;71500;50.806;8.774;2024-01-30T00:18:20;10.50;;;8.70;;
81996;SDS011;71500;50.806;8.774;2024-01-30T00:20:52;13.00;;;9.50;;
81996;SDS011;71500;50.806;8.774;2024-01-30T00:23:23;12.30;;;9.30;;
81996;SDS011;71500;50.806;8.774;2024-01-30T00:25:54;12.90;;;8.70;;
81996;SDS011;71500;50.806;8.774;2024-01-30T00:28:26;12.40;;;9.10;;
81996;SDS011;71500;50.806;8.774;2024-01-30T00:30:57;12.00;;;8.00;;
81996;SDS011;71500;50.806;8.774;2024-01-30T00:33:29;11.20;;;8.10;;
81996;SDS011;71500;50.806;8.774;2024-01-30T00:36:01;14.20;;;9.80;;
81996;SDS011;71500;50.806;8.774;2024-01-30T00:38:32;13.00;;;8.70;;
81996;SDS011;71500;50.806;8.774;2024-01-30T00:41:05;15.40;;;9.20;;
81996;SDS011;71500;50.806;8.774;2024-01-30T00:43:36;11.30;;;9.20;;
81996;SDS011;71500;50.806;8.774;2024-01-30T00:46:08;11.60;;;7.90;;
81996;SDS011;71500;50.806;8.774;2024-01-30T00:48:40;9.50;;;6.80;;
81996;SDS011;71500;50.806;8.774;2024-01-30T00:51:11;10.10;;;7.60;;
81996;SDS011;71500;50.806;8.774;2024-01-30T00:53:43;9.20;;;7.90;;
81996;SDS011;71500;50.806;8.774;2024-01-30T00:56:16;10.00;;;7.50;;
81996;SDS011;71500;50.806;8.774;2024-01-30T00:58:49;11.90;;;7.10;;
81996;SDS011;71500;50.806;8.774;2024-01-30T01:01:20;9.50;;;8.20;;
81996;SDS011;71500;50.806;8.774;2024-01-30T01:03:52;11.70;;;8.30;;
81996;SDS011;71500;50.806;8.774;2024-01-30T01:06:24;10.50;;;8.00;;
81996;SDS011;71500;50.806;8.774;2024-01-30T01:08:55;10.80;;;8.60;;
81996;SDS011;71500;50.806;8.774;2024-01-30T01:11:29;12.50;;;8.70;;
81996;SDS011;71500;50.806;8.774;2024-01-30T01:14:01;10.40;;;7.40;;
81996;SDS011;71500;50.806;8.774;2024-01-30T01:16:32;11.20;;;8.20;;
81996;SDS011;71500;50.806;8.774;2024-01-30T01:19:04;10.10;;;8.60;;
81996;SDS011;71500;50.806;8.774;2024-01-30T01:21:36;11.00;;;8.00;;
81996;SDS011;71500;50.806;8.774;2024-01-30T01:24:08;10.90;;;8.30;;
81996;SDS011;71500;50.806;8.774;2024-01-30T01:26:40;12.20;;;8.70;;
81996;SDS011;71500;50.806;8.774;2024-01-30T01:29:11;9.90;;;7.40;;
81996;SDS011;71500;50.806;8.774;2024-01-30T01:31:44;11.80;;;9.10;;
81996;SDS011;71500;50.806;8.774;2024-01-30T01:34:16;10.80;;;8.30;;
81996;SDS011;71500;50.806;8.774;2024-01-30T01:36:47;9.90;;;8.60;;
81996;SDS011;71500;50.806;8.774;2024-01-30T01:39:19;14.00;;;10.70;;
81996;SDS011;71500;50.806;8.774;2024-01-30T01:41:52;16.00;;;9.70;;
81996;SDS011;71500;50.806;8.774;2024-01-30T01:44:24;13.40;;;8.90;;
81996;SDS011;71500;50.806;8.774;2024-01-30T01:46:55;12.40;;;8.20;;
81996;SDS011;71500;50.806;8.774;2024-01-30T01:49:28;12.00;;;7.90;;
81996;SDS011;71500;50.806;8.774;2024-01-30T01:52:00;12.10;;;7.40;;
81996;SDS011;71500;50.806;8.774;2024-01-30T01:54:32;9.20;;;6.80;;
81996;SDS011;71500;50.806;8.774;2024-01-30T01:57:04;9.20;;;6.60;;
81996;SDS011;71500;50.806;8.774;2024-01-30T01:59:36;8.50;;;6.30;;
81996;SDS011;71500;50.806;8.774;2024-01-30T02:02:08;8.60;;;7.10;;
81996;SDS011;71500;50.806;8.774;2024-01-30T02:04:44;9.50;;;7.80;;
81996;SDS011;71500;50.806;8.774;2024-01-30T02:07:16;7.40;;;6.60;;
81996;SDS011;71500;50.806;8.774;2024-01-30T02:09:48;8.60;;;7.00;;
81996;SDS011;71500;50.806;8.774;2024-01-30T02:12:20;11.20;;;8.00;;
81996;SDS011;71500;50.806;8.774;2024-01-30T02:14:51;9.30;;;8.30;;
81996;SDS011;71500;50.806;8.774;2024-01-30T02:17:24;10.10;;;8.00;;
81996;SDS011;71500;50.806;8.774;2024-01-30T02:19:55;11.00;;;7.80;;
81996;SDS011;71500;50.806;8.774;2024-01-30T02:22:27;10.10;;;8.10;;
81996;SDS011;71500;50.806;8.774;2024-01-30T02:24:59;11.80;;;7.80;;
81996;SDS011;71500;50.806;8.774;2024-01-30T02:27:31;10.00;;;7.30;;
81996;SDS011;71500;50.806;8.774;2024-01-30T02:30:03;10.40;;;7.90;;
81996;SDS011;71500;50.806;8.774;2024-01-30T02:32:36;11.20;;;8.10;;
81996;SDS011;71500;50.806;8.774;2024-01-30T02:35:08;12.30;;;9.10;;
81996;SDS011;71500;50.806;8.774;2024-01-30T02:37:40;12.30;;;8.40;;
81996;SDS011;71500;50.806;8.774;2024-01-30T02:40:12;9.60;;;7.60;;
81996;SDS011;71500;50.806;8.774;2024-01-30T02:42:44;11.30;;;9.10;;
81996;SDS011;71500;50.806;8.774;2024-01-30T02:45:16;13.30;;;8.20;;
81996;SDS011;71500;50.806;8.774;2024-01-30T02:47:48;15.40;;;9.20;;
81996;SDS011;71500;50.806;8.774;2024-01-30T02:50:19;12.40;;;9.60;;
81996;SDS011;71500;50.806;8.774;2024-01-30T02:52:51;11.20;;;8.70;;
81996;SDS011;71500;50.806;8.774;2024-01-30T02:55:24;10.10;;;7.50;;
81996;SDS011;71500;50.806;8.774;2024-01-30T02:57:55;10.10;;;7.30;;
81996;SDS011;71500;50.806;8.774;2024-01-30T03:00:27;7.90;;;6.80;;
81996;SDS011;71500;50.806;8.774;2024-01-30T03:02:58;8.30;;;6.60;;
81996;SDS011;71500;50.806;8.774;2024-01-30T03:05:30;8.90;;;7.50;;
81996;SDS011;71500;50.806;8.774;2024-01-30T03:08:03;10.40;;;8.00;;
81996;SDS011;71500;50.806;8.774;2024-01-30T03:10:36;11.20;;;8.10;;
81996;SDS011;71500;50.806;8.774;2024-01-30T03:13:08;10.70;;;8.10;;
81996;SDS011;71500;50.806;8.774;2024-01-30T03:15:40;11.50;;;8.10;;
81996;SDS011;71500;50.806;8.774;2024-01-30T03:18:11;10.10;;;8.60;;
81996;SDS011;71500;50.806;8.774;2024-01-30T03:20:43;11.60;;;9.20;;
81996;SDS011;71500;50.806;8.774;2024-01-30T03:23:17;12.10;;;8.20;;
81996;SDS011;71500;50.806;8.774;2024-01-30T03:25:50;10.00;;;9.00;;
81996;SDS011;71500;50.806;8.774;2024-01-30T03:28:21;10.20;;;7.50;;
81996;SDS011;71500;50.806;8.774;2024-01-30T03:30:53;11.80;;;8.10;;
81996;SDS011;71500;50.806;8.774;2024-01-30T03:33:24;13.80;;;9.70;;
81996;SDS011;71500;50.806;8.774;2024-01-30T03:35:57;10.60;;;8.90;;
81996;SDS011;71500;50.806;8.774;2024-01-30T03:38:32;10.90;;;8.50;;
81996;SDS011;71500;50.806;8.774;2024-01-30T03:41:07;12.00;;;8.60;;
81996;SDS011;71500;50.806;8.774;2024-01-30T03:43:39;11.20;;;8.60;;
81996;SDS011;71500;50.806;8.774;2024-01-30T03:46:11;11.30;;;8.70;;
81996;SDS011;71500;50.806;8.774;2024-01-30T03:48:44;10.70;;;7.50;;
81996;SDS011;71500;50.806;8.774;2024-01-30T03:51:16;12.30;;;9.30;;
81996;SDS011;71500;50.806;8.774;2024-01-30T03:53:48;15.90;;;9.60;;
81996;SDS011;71500;50.806;8.774;2024-01-30T03:56:19;14.60;;;9.80;;
81996;SDS011;71500;50.806;8.774;2024-01-30T03:58:51;12.50;;;8.50;;
81996;SDS011;71500;50.806;8.774;2024-01-30T04:01:22;13.40;;;8.10;;
81996;SDS011;71500;50.806;8.774;2024-01-30T04:03:54;11.80;;;8.20;;
81996;SDS011;71500;50.806;8.774;2024-01-30T04:06:25;13.00;;;9.10;;
81996;SDS011;71500;50.806;8.774;2024-01-30T04:08:57;8.50;;;7.00;;
81996;SDS011;71500;50.806;8.774;2024-01-30T04:11:29;10.00;;;7.40;;
81996;SDS011;71500;50.806;8.774;2024-01-30T04:14:00;10.80;;;8.00;;
81996;SDS011;71500;50.806;8.774;2024-01-30T04:16:31;9.60;;;6.70;;
81996;SDS011;71500;50.806;8.774;2024-01-30T04:19:03;9.90;;;7.90;;
81996;SDS011;71500;50.806;8.774;2024-01-30T04:21:35;9.10;;;7.90;;
81996;SDS011;71500;50.806;8.774;2024-01-30T04:24:07;11.60;;;8.40;;
81996;SDS011;71500;50.806;8.774;2024-01-30T04:26:39;11.10;;;8.80;;
81996;SDS011;71500;50.806;8.774;2024-01-30T04:29:10;12.30;;;7.30;;
81996;SDS011;71500;50.806;8.774;2024-01-30T04:31:42;12.10;;;8.70;;
81996;SDS011;71500;50.806;8.774;2024-01-30T04:34:13;11.50;;;7.80;;
81996;SDS011;71500;50.806;8.774;2024-01-30T04:36:45;11.20;;;8.60;;
81996;SDS011;71500;50.806;8.774;2024-01-30T04:39:17;12.80;;;8.80;;
81996;SDS011;71500;50.806;8.774;2024-01-30T04:41:48;10.60;;;7.80;;
81996;SDS011;71500;50.806;8.774;2024-01-30T04:44:20;11.00;;;8.10;;
81996;SDS011;71500;50.806;8.774;2024-01-30T04:46:52;10.20;;;7.80;;
81996;SDS011;71500;50.806;8.774;2024-01-30T04:49:27;10.50;;;8.10;;
81996;SDS011;71500;50.806;8.774;2024-01-30T04:51:59;10.50;;;7.20;;
81996;SDS011;71500;50.806;8.774;2024-01-30T04:54:30;10.20;;;7.10;;
81996;SDS011;71500;50.806;8.774;2024-01-30T04:57:02;9.70;;;7.30;;
81996;SDS011;71500;50.806;8.774;2024-01-30T04:59:38;10.10;;;7.40;;
81996;SDS011;71500;50.806;8.774;2024-01-30T05:02:09;15.00;;;9.30;;
81996;SDS011;71500;50.806;8.774;2024-01-30T05:04:41;13.20;;;7.90;;
81996;SDS011;71500;50.806;8.774;2024-01-30T05:07:13;13.10;;;8.90;;
81996;SDS011;71500;50.806;8.774;2024-01-30T05:09:45;11.60;;;8.00;;
81996;SDS011;71500;50.806;8.774;2024-01-30T05:12:16;9.70;;;7.40;;
81996;SDS011;71500;50.806;8.774;2024-01-30T05:14:48;10.00;;;7.40;;
81996;SDS011;71500;50.806;8.774;2024-01-30T05:17:19;10.10;;;7.80;;
81996;SDS011;71500;50.806;8.774;2024-01-30T05:19:51;8.50;;;7.30;;
81996;SDS011;71500;50.806;8.774;2024-01-30T05:22:22;11.30;;;8.40;;
81996;SDS011;71500;50.806;8.774;2024-01-30T05:24:54;10.50;;;8.50;;
81996;SDS011;71500;50.806;8.774;2024-01-30T05:27:26;12.00;;;8.60;;
81996;SDS011;71500;50.806;8.774;2024-01-30T05:29:57;9.70;;;8.70;;
81996;SDS011;71500;50.806;8.774;2024-01-30T05:32:29;10.50;;;8.60;;
81996;SDS011;71500;50.806;8.774;2024-01-30T05:35:00;13.60;;;9.40;;
81996;SDS011;71500;50.806;8.774;2024-01-30T05:37:33;11.30;;;7.70;;
81996;SDS011;71500;50.806;8.774;2024-01-30T05:40:06;11.20;;;7.70;;
81996;SDS011;71500;50.806;8.774;2024-01-30T05:42:39;11.10;;;8.70;;
81996;SDS011;71500;50.806;8.774;2024-01-30T05:45:10;14.00;;;10.10;;
81996;SDS011;71500;50.806;8.774;2024-01-30T05:47:42;11.10;;;8.50;;
81996;SDS011;71500;50.806;8.774;2024-01-30T05:50:13;13.20;;;9.00;;
81996;SDS011;71500;50.806;8.774;2024-01-30T05:52:45;10.90;;;8.30;;
81996;SDS011;71500;50.806;8.774;2024-01-30T05:55:16;11.90;;;8.60;;
81996;SDS011;71500;50.806;8.774;2024-01-30T05:57:48;9.00;;;7.10;;
81996;SDS011;71500;50.806;8.774;2024-01-30T06:00:21;15.00;;;10.30;;
81996;SDS011;71500;50.806;8.774;2024-01-30T06:02:52;15.70;;;12.10;;
81996;SDS011;71500;50.806;8.774;2024-01-30T06:05:24;16.30;;;11.00;;
81996;SDS011;71500;50.806;8.774;2024-01-30T06:07:55;17.20;;;10.50;;
81996;SDS011;71500;50.806;8.774;2024-01-30T06:10:27;12.60;;;9.00;;
81996;SDS011;71500;50.806;8.774;2024-01-30T06:12:58;11.30;;;8.60;;
81996;SDS011;71500;50.806;8.774;2024-01-30T06:15:30;8.50;;;6.50;;
81996;SDS011;71500;50.806;8.774;2024-01-30T06:18:02;11.50;;;7.00;;
81996;SDS011;71500;50.806;8.774;2024-01-30T06:20:34;8.90;;;7.10;;
81996;SDS011;71500;50.806;8.774;2024-01-30T06:23:06;9.50;;;6.90;;
81996;SDS011;71500;50.806;8.774;2024-01-30T06:25:37;11.60;;;7.90;;
81996;SDS011;71500;50.806;8.774;2024-01-30T06:28:09;10.90;;;9.60;;
81996;SDS011;71500;50.806;8.774;2024-01-30T06:30:40;9.40;;;7.70;;
81996;SDS011;71500;50.806;8.774;2024-01-30T06:33:13;11.00;;;8.00;;
81996;SDS011;71500;50.806;8.774;2024-01-30T06:35:44;12.20;;;8.40;;
81996;SDS011;71500;50.806;8.774;2024-01-30T06:38:16;11.50;;;8.10;;
81996;SDS011;71500;50.806;8.774;2024-01-30T06:40:48;8.90;;;7.20;;
81996;SDS011;71500;50.806;8.774;2024-01-30T06:43:19;12.10;;;8.70;;
81996;SDS011;71500;50.806;8.774;2024-01-30T06:45:51;13.30;;;9.00;;
81996;SDS011;71500;50.806;8.774;2024-01-30T06:48:23;12.70;;;8.40;;
81996;SDS011;71500;50.806;8.774;2024-01-30T06:50:54;12.30;;;8.20;;
81996;SDS011;71500;50.806;8.774;2024-01-30T06:53:26;13.90;;;9.80;;
81996;SDS011;71500;50.806;8.774;2024-01-30T06:55:58;12.70;;;9.10;;
81996;SDS011;71500;50.806;8.774;2024-01-30T06:58:29;14.50;;;9.90;;
81996;SDS011;71500;50.806;8.774;2024-01-30T07:01:01;12.40;;;8.80;;
81996;SDS011;71500;50.806;8.774;2024-01-30T07:03:33;12.50;;;9.30;;
81996;SDS011;71500;50.806;8.774;2024-01-30T07:06:05;13.60;;;9.30;;
81996;SDS011;71500;50.806;8.774;2024-01-30T07:08:36;13.30;;;9.20;;
81996;SDS011;71500;50.806;8.774;2024-01-30T07:11:08;13.90;;;8.90;;
81996;SDS011;71500;50.806;8.774;2024-01-30T07:13:41;14.80;;;8.80;;
81996;SDS011;71500;50.806;8.774;2024-01-30T07:16:12;13.10;;;8.50;;
81996;SDS011;71500;50.806;8.774;2024-01-30T07:18:44;10.20;;;7.30;;
81996;SDS011;71500;50.806;8.774;2024-01-30T07:21:16;8.50;;;6.70;;
81996;SDS011;71500;50.806;8.774;2024-01-30T07:23:50;6.20;;;5.60;;
81996;SDS011;71500;50.806;8.774;2024-01-30T07:26:22;9.70;;;7.20;;
81996;SDS011;71500;50.806;8.774;2024-01-30T07:28:53;8.10;;;6.50;;
81996;SDS011;71500;50.806;8.774;2024-01-30T07:31:25;11.00;;;7.10;;
81996;SDS011;71500;50.806;8.774;2024-01-30T07:34:00;9.50;;;7.40;;
81996;SDS011;71500;50.806;8.774;2024-01-30T07:36:32;11.30;;;8.80;;
81996;SDS011;71500;50.806;8.774;2024-01-30T07:39:04;10.60;;;8.50;;
81996;SDS011;71500;50.806;8.774;2024-01-30T07:41:35;11.50;;;8.90;;
81996;SDS011;71500;50.806;8.774;2024-01-30T07:44:07;12.40;;;8.60;;
81996;SDS011;71500;50.806;8.774;2024-01-30T07:46:38;13.10;;;9.10;;
81996;SDS011;71500;50.806;8.774;2024-01-30T07:49:10;9.10;;;7.70;;
81996;SDS011;71500;50.806;8.774;2024-01-30T07:51:43;10.30;;;9.20;;
81996;SDS011;71500;50.806;8.774;2024-01-30T07:54:15;11.40;;;8.90;;
81996;SDS011;71500;50.806;8.774;2024-01-30T07:56:47;10.70;;;8.30;;
81996;SDS011;71500;50.806;8.774;2024-01-30T07:59:18;12.30;;;9.00;;
81996;SDS011;71500;50.806;8.774;2024-01-30T08:01:53;12.50;;;9.70;;
81996;SDS011;71500;50.806;8.774;2024-01-30T08:04:25;11.70;;;9.50;;
81996;SDS011;71500;50.806;8.774;2024-01-30T08:06:57;12.10;;;8.40;;
81996;SDS011;71500;50.806;8.774;2024-01-30T08:09:28;12.10;;;8.70;;
81996;SDS011;71500;50.806;8.774;2024-01-30T08:12:00;12.10;;;9.40;;
81996;SDS011;71500;50.806;8.774;2024-01-30T08:14:31;13.50;;;9.10;;
81996;SDS011;71500;50.806;8.774;2024-01-30T08:17:03;11.00;;;8.90;;
81996;SDS011;71500;50.806;8.774;2024-01-30T08:19:36;13.30;;;9.20;;
81996;SDS011;71500;50.806;8.774;2024-01-30T08:22:07;11.60;;;7.80;;
81996;SDS011;71500;50.806;8.774;2024-01-30T08:24:40;10.80;;;8.00;;
81996;SDS011;71500;50.806;8.774;2024-01-30T08:27:12;10.30;;;7.50;;
81996;SDS011;71500;50.806;8.774;2024-01-30T08:29:43;8.10;;;6.70;;
81996;SDS011;71500;50.806;8.774;2024-01-30T08:32:15;10.20;;;7.40;;
81996;SDS011;71500;50.806;8.774;2024-01-30T08:34:46;10.60;;;8.00;;
81996;SDS011;71500;50.806;8.774;2024-01-30T08:37:18;9.90;;;8.10;;
81996;SDS011;71500;50.806;8.774;2024-01-30T08:39:50;12.60;;;9.60;;
81996;SDS011;71500;50.806;8.774;2024-01-30T08:42:23;12.10;;;9.00;;
81996;SDS011;71500;50.806;8.774;2024-01-30T08:44:55;15.40;;;11.00;;
81996;SDS011;71500;50.806;8.774;2024-01-30T08:47:26;12.90;;;10.10;;
81996;SDS011;71500;50.806;8.774;2024-01-30T08:49:58;13.60;;;10.30;;
81996;SDS011;71500;50.806;8.774;2024-01-30T08:52:30;16.30;;;9.80;;
81996;SDS011;71500;50.806;8.774;2024-01-30T08:55:03;15.50;;;12.00;;
81996;SDS011;71500;50.806;8.774;2024-01-30T08:57:35;12.00;;;10.10;;
81996;SDS011;71500;50.806;8.774;2024-01-30T09:00:08;12.10;;;10.60;;
81996;SDS011;71500;50.806;8.774;2024-01-30T09:02:41;11.00;;;8.70;;
81996;SDS011;71500;50.806;8.774;2024-01-30T09:05:13;12.20;;;9.80;;
81996;SDS011;71500;50.806;8.774;2024-01-30T09:07:45;16.30;;;9.60;;
81996;SDS011;71500;50.806;8.774;2024-01-30T09:10:17;11.00;;;8.50;;
81996;SDS011;71500;50.806;8.774;2024-01-30T09:12:49;15.60;;;10.60;;
81996;SDS011;71500;50.806;8.774;2024-01-30T09:15:21;13.60;;;9.90;;
81996;SDS011;71500;50.806;8.774;2024-01-30T09:17:54;15.90;;;11.30;;
81996;SDS011;71500;50.806;8.774;2024-01-30T09:20:26;15.00;;;9.60;;
81996;SDS011;71500;50.806;8.774;2024-01-30T09:23:02;12.50;;;9.10;;
81996;SDS011;71500;50.806;8.774;2024-01-30T09:25:34;11.70;;;8.90;;
81996;SDS011;71500;50.806;8.774;2024-01-30T09:28:06;12.10;;;8.60;;
81996;SDS011;71500;50.806;8.774;2024-01-30T09:30:38;11.70;;;9.00;;
81996;SDS011;71500;50.806;8.774;2024-01-30T09:33:09;10.20;;;8.30;;
81996;SDS011;71500;50.806;8.774;2024-01-30T09:35:41;12.20;;;9.00;;
81996;SDS011;71500;50.806;8.774;2024-01-30T09:38:13;12.00;;;10.10;;
81996;SDS011;71500;50.806;8.774;2024-01-30T09:40:44;11.50;;;8.70;;
81996;SDS011;71500;50.806;8.774;2024-01-30T09:43:21;10.80;;;8.50;;
81996;SDS011;71500;50.806;8.774;2024-01-30T09:45:55;12.80;;;10.80;;
81996;SDS011;71500;50.806;8.774;2024-01-30T09:48:30;12.60;;;9.70;;
81996;SDS011;71500;50.806;8.774;2024-01-30T09:51:02;12.40;;;9.30;;
81996;SDS011;71500;50.806;8.774;2024-01-30T09:53:35;15.20;;;9.90;;
81996;SDS011;71500;50.806;8.774;2024-01-30T09:58:38;12.80;;;8.30;;
81996;SDS011;71500;50.806;8.774;2024-01-30T10:01:10;14.50;;;9.60;;
81996;SDS011;71500;50.806;8.774;2024-01-30T10:03:42;13.50;;;9.60;;
81996;SDS011;71500;50.806;8.774;2024-01-30T10:06:14;14.90;;;11.20;;
81996;SDS011;71500;50.806;8.774;2024-01-30T10:08:48;13.50;;;10.50;;
81996;SDS011;71500;50.806;8.774;2024-01-30T10:11:20;11.60;;;8.70;;
81996;SDS011;71500;50.806;8.774;2024-01-30T10:13:55;13.10;;;9.80;;
81996;SDS011;71500;50.806;8.774;2024-01-30T10:16:26;13.60;;;10.00;;
81996;SDS011;71500;50.806;8.774;2024-01-30T10:18:58;12.90;;;10.10;;
81996;SDS011;71500;50.806;8.774;2024-01-30T10:21:30;13.30;;;8.90;;
81996;SDS011;71500;50.806;8.774;2024-01-30T10:24:02;12.30;;;9.50;;
81996;SDS011;71500;50.806;8.774;2024-01-30T10:26:37;13.60;;;9.10;;
81996;SDS011;71500;50.806;8.774;2024-01-30T10:29:09;12.10;;;8.40;;
81996;SDS011;71500;50.806;8.774;2024-01-30T10:31:40;14.50;;;10.00;;
81996;SDS011;71500;50.806;8.774;2024-01-30T10:34:12;12.50;;;9.20;;
81996;SDS011;71500;50.806;8.774;2024-01-30T10:36:51;12.40;;;9.20;;
81996;SDS011;71500;50.806;8.774;2024-01-30T10:39:30;13.60;;;10.40;;
81996;SDS011;71500;50.806;8.774;2024-01-30T10:42:13;16.00;;;11.20;;
81996;SDS011;71500;50.806;8.774;2024-01-30T10:44:56;14.20;;;11.30;;
81996;SDS011;71500;50.806;8.774;2024-01-30T10:47:30;14.90;;;10.70;;
81996;SDS011;71500;50.806;8.774;2024-01-30T10:50:04;14.10;;;10.40;;
81996;SDS011;71500;50.806;8.774;2024-01-30T10:52:39;15.70;;;11.50;;
81996;SDS011;71500;50.806;8.774;2024-01-30T10:55:12;14.30;;;10.30;;
81996;SDS011;71500;50.806;8.774;2024-01-30T10:57:46;11.90;;;10.40;;
81996;SDS011;71500;50.806;8.774;2024-01-30T11:00:18;14.40;;;10.00;;
81996;SDS011;71500;50.806;8.774;2024-01-30T11:02:52;14.80;;;10.70;;
81996;SDS011;71500;50.806;8.774;2024-01-30T11:05:25;12.60;;;10.10;;
81996;SDS011;71500;50.806;8.774;2024-01-30T11:08:11;14.30;;;9.80;;
81996;SDS011;71500;50.806;8.774;2024-01-30T11:10:47;17.30;;;11.30;;
81996;SDS011;71500;50.806;8.774;2024-01-30T11:13:20;13.10;;;11.10;;
81996;SDS011;71500;50.806;8.774;2024-01-30T11:15:51;11.90;;;9.20;;
81996;SDS011;71500;50.806;8.774;2024-01-30T11:18:26;13.30;;;10.90;;
81996;SDS011;71500;50.806;8.774;2024-01-30T11:21:00;12.80;;;10.60;;
81996;SDS011;71500;50.806;8.774;2024-01-30T11:23:34;14.20;;;9.90;;
81996;SDS011;71500;50.806;8.774;2024-01-30T11:28:40;11.50;;;8.70;;
81996;SDS011;71500;50.806;8.774;2024-01-30T11:31:11;11.70;;;8.40;;
81996;SDS011;71500;50.806;8.774;2024-01-30T11:33:53;10.80;;;8.80;;
81996;SDS011;71500;50.806;8.774;2024-01-30T11:36:26;11.40;;;8.60;;
81996;SDS011;71500;50.806;8.774;2024-01-30T11:38:58;11.00;;;8.40;;
81996;SDS011;71500;50.806;8.774;2024-01-30T11:41:31;12.10;;;10.80;;
81996;SDS011;71500;50.806;8.774;2024-01-30T11:44:05;12.10;;;10.10;;
81996;SDS011;71500;50.806;8.774;2024-01-30T11:46:38;16.00;;;11.80;;
81996;SDS011;71500;50.806;8.774;2024-01-30T11:49:09;18.70;;;12.70;;
81996;SDS011;71500;50.806;8.774;2024-01-30T11:51:41;16.00;;;12.40;;
81996;SDS011;71500;50.806;8.774;2024-01-30T11:54:15;16.30;;;13.00;;
81996;SDS011;71500;50.806;8.774;2024-01-30T11:56:47;14.50;;;12.30;;
81996;SDS011;71500;50.806;8.774;2024-01-30T11:59:18;16.70;;;13.20;;
81996;SDS011;71500;50.806;8.774;2024-01-30T12:01:51;14.10;;;10.30;;
81996;SDS011;71500;50.806;8.774;2024-01-30T12:06:53;15.00;;;11.60;;
81996;SDS011;71500;50.806;8.774;2024-01-30T12:09:25;14.40;;;10.70;;
81996;SDS011;71500;50.806;8.774;2024-01-30T12:11:56;18.20;;;13.10;;
81996;SDS011;71500;50.806;8.774;2024-01-30T12:14:28;18.00;;;13.60;;
81996;SDS011;71500;50.806;8.774;2024-01-30T12:17:00;16.70;;;12.20;;
81996;SDS011;71500;50.806;8.774;2024-01-30T12:19:32;14.40;;;11.20;;
81996;SDS011;71500;50.806;8.774;2024-01-30T12:22:04;14.10;;;12.40;;
81996;SDS011;71500;50.806;8.774;2024-01-30T12:24:36;13.80;;;11.90;;
81996;SDS011;71500;50.806;8.774;2024-01-30T12:27:07;18.30;;;14.40;;
81996;SDS011;71500;50.806;8.774;2024-01-30T12:29:42;18.50;;;14.20;;
81996;SDS011;71500;50.806;8.774;2024-01-30T12:32:16;15.80;;;13.20;;
81996;SDS011;71500;50.806;8.774;2024-01-30T12:34:47;13.10;;;11.40;;
81996;SDS011;71500;50.806;8.774;2024-01-30T12:37:29;15.20;;;12.30;;
81996;SDS011;71500;50.806;8.774;2024-01-30T12:40:01;14.40;;;11.60;;
81996;SDS011;71500;50.806;8.774;2024-01-30T12:42:34;13.90;;;11.80;;
81996;SDS011;71500;50.806;8.774;2024-01-30T12:45:07;17.00;;;14.50;;
81996;SDS011;71500;50.806;8.774;2024-01-30T12:47:39;17.60;;;14.60;;
81996;SDS011;71500;50.806;8.774;2024-01-30T12:50:11;17.40;;;14.10;;
81996;SDS011;71500;50.806;8.774;2024-01-30T12:52:44;17.70;;;15.00;;
81996;SDS011;71500;50.806;8.774;2024-01-30T12:55:18;15.40;;;12.30;;
81996;SDS011;71500;50.806;8.774;2024-01-30T12:57:49;16.00;;;12.30;;
81996;SDS011;71500;50.806;8.774;2024-01-30T13:00:21;12.70;;;10.80;;
81996;SDS011;71500;50.806;8.774;2024-01-30T13:02:53;17.80;;;13.50;;
81996;SDS011;71500;50.806;8.774;2024-01-30T13:05:24;11.90;;;10.40;;
81996;SDS011;71500;50.806;8.774;2024-01-30T13:07:56;15.10;;;12.00;;
81996;SDS011;71500;50.806;8.774;2024-01-30T13:10:28;15.80;;;11.10;;
81996;SDS011;71500;50.806;8.774;2024-01-30T13:12:59;15.90;;;12.00;;
81996;SDS011;71500;50.806;8.774;2024-01-30T13:15:31;15.20;;;11.60;;
81996;SDS011;71500;50.806;8.774;2024-01-30T13:18:03;14.70;;;11.20;;
81996;SDS011;71500;50.806;8.774;2024-01-30T13:20:35;15.70;;;12.70;;
81996;SDS011;71500;50.806;8.774;2024-01-30T13:23:06;16.50;;;12.40;;
81996;SDS011;71500;50.806;8.774;2024-01-30T13:25:38;18.50;;;12.90;;
81996;SDS011;71500;50.806;8.774;2024-01-30T13:28:09;13.10;;;11.00;;
81996;SDS011;71500;50.806;8.774;2024-01-30T13:30:41;15.50;;;11.00;;
81996;SDS011;71500;50.806;8.774;2024-01-30T13:33:13;15.80;;;12.00;;
81996;SDS011;71500;50.806;8.774;2024-01-30T13:35:44;15.20;;;12.20;;
81996;SDS011;71500;50.806;8.774;2024-01-30T13:38:16;16.90;;;12.60;;
81996;SDS011;71500;50.806;8.774;2024-01-30T13:40:47;14.70;;;11.20;;
81996;SDS011;71500;50.806;8.774;2024-01-30T13:43:19;14.40;;;11.40;;
81996;SDS011;71500;50.806;8.774;2024-01-30T13:45:51;18.50;;;12.20;;
81996;SDS011;71500;50.806;8.774;2024-01-30T13:48:22;17.10;;;11.90;;
81996;SDS011;71500;50.806;8.774;2024-01-30T13:50:54;16.70;;;13.70;;
81996;SDS011;71500;50.806;8.774;2024-01-30T13:53:26;14.40;;;11.80;;
81996;SDS011;71500;50.806;8.774;2024-01-30T13:55:58;15.40;;;11.30;;
81996;SDS011;71500;50.806;8.774;2024-01-30T13:58:30;15.80;;;12.60;;
81996;SDS011;71500;50.806;8.774;2024-01-30T14:01:03;15.60;;;11.80;;
81996;SDS011;71500;50.806;8.774;2024-01-30T14:03:35;15.60;;;12.50;;
81996;SDS011;71500;50.806;8.774;2024-01-30T14:06:06;16.30;;;12.90;;
81996;SDS011;71500;50.806;8.774;2024-01-30T14:08:38;12.80;;;10.30;;
81996;SDS011;71500;50.806;8.774;2024-01-30T14:11:15;14.30;;;11.70;;
81996;SDS011;71500;50.806;8.774;2024-01-30T14:13:47;16.30;;;13.00;;
81996;SDS011;71500;50.806;8.774;2024-01-30T14:16:19;15.30;;;12.40;;
81996;SDS011;71500;50.806;8.774;2024-01-30T14:18:50;15.70;;;11.70;;
81996;SDS011;71500;50.806;8.774;2024-01-30T14:21:23;13.90;;;11.00;;
81996;SDS011;71500;50.806;8.774;2024-01-30T14:23:55;16.20;;;12.00;;
81996;SDS011;71500;50.806;8.774;2024-01-30T14:26:27;16.50;;;12.60;;
81996;SDS011;71500;50.806;8.774;2024-01-30T14:28:58;17.30;;;13.40;;
81996;SDS011;71500;50.806;8.774;2024-01-30T14:31:29;19.70;;;14.10;;
81996;SDS011;71500;50.806;8.774;2024-01-30T14:34:01;15.20;;;12.60;;
81996;SDS011;71500;50.806;8.774;2024-01-30T14:36:32;16.30;;;12.40;;
81996;SDS011;71500;50.806;8.774;2024-01-30T14:39:06;15.80;;;11.70;;
81996;SDS011;71500;50.806;8.774;2024-01-30T14:41:38;15.40;;;11.30;;
81996;SDS011;71500;50.806;8.774;2024-01-30T14:44:09;12.00;;;10.20;;
81996;SDS011;71500;50.806;8.774;2024-01-30T14:46:42;12.70;;;11.00;;
81996;SDS011;71500;50.806;8.774;2024-01-30T14:49:15;16.90;;;12.30;;
81996;SDS011;71500;50.806;8.774;2024-01-30T14:51:46;17.10;;;11.90;;
81996;SDS011;71500;50.806;8.774;2024-01-30T14:54:18;16.40;;;11.80;;
81996;SDS011;71500;50.806;8.774;2024-01-30T14:56:50;14.50;;;11.70;;
81996;SDS011;71500;50.806;8.774;2024-01-30T14:59:22;12.70;;;10.60;;
81996;SDS011;71500;50.806;8.774;2024-01-30T15:01:54;14.10;;;10.20;;
81996;SDS011;71500;50.806;8.774;2024-01-30T15:04:27;13.60;;;11.10;;
81996;SDS011;71500;50.806;8.774;2024-01-30T15:06:59;14.50;;;11.80;;